sensor_id;sensor_type;location;lat;lon;timestamp;P1;durP1;ratioP1;P2;durP2;ratioP2
71265;SDS011;59030;52.052;8.550;2023-04-25T00:28:22;1.90;;;1.43;;
71265;SDS011;59030;52.052;8.550;2023-04-25T00:30:56;1.50;;;1.27;;
71265;SDS011;59030;52.052;8.550;2023-04-25T01:01:48;1.67;;;1.07;;
71265;SDS011;59030;52.052;8.550;2023-04-25T01:04:47;1.20;;;1.07;;
71265;SDS011;59030;52.052;8.550;2023-04-25T01:07:16;1.53;;;1.43;;
71265;SDS011;59030;52.052;8.550;2023-04-25T01:19:18;1.50;;;1.37;;
71265;SDS011;59030;52.052;8.550;2023-04-25T02:56:51;1.50;;;1.30;;
71265;SDS011;59030;52.052;8.550;2023-04-25T02:59:18;1.20;;;1.00;;
71265;SDS011;59030;52.052;8.550;2023-04-25T03:01:45;1.97;;;1.47;;
71265;SDS011;59030;52.052;8.550;2023-04-25T03:04:13;1.67;;;1.40;;
71265;SDS011;59030;52.052;8.550;2023-04-25T03:06:41;1.40;;;1.23;;
71265;SDS011;59030;52.052;8.550;2023-04-25T03:09:08;1.20;;;1.13;;
71265;SDS011;59030;52.052;8.550;2023-04-25T03:11:36;3.20;;;1.20;;
71265;SDS011;59030;52.052;8.550;2023-04-25T03:14:03;3.43;;;1.43;;
71265;SDS011;59030;52.052;8.550;2023-04-25T03:16:32;3.40;;;1.40;;
71265;SDS011;59030;52.052;8.550;2023-04-25T03:18:59;3.57;;;1.27;;
71265;SDS011;59030;52.052;8.550;2023-04-25T03:21:27;2.17;;;1.33;;
71265;SDS011;59030;52.052;8.550;2023-04-25T03:23:54;2.43;;;1.47;;
71265;SDS011;59030;52.052;8.550;2023-04-25T03:26:21;2.40;;;1.43;;
71265;SDS011;59030;52.052;8.550;2023-04-25T03:28:49;2.73;;;1.10;;
71265;SDS011;59030;52.052;8.550;2023-04-25T03:31:16;2.37;;;1.53;;
71265;SDS011;59030;52.052;8.550;2023-04-25T03:33:43;2.20;;;1.30;;
71265;SDS011;59030;52.052;8.550;2023-04-25T03:36:11;1.10;;;1.10;;
71265;SDS011;59030;52.052;8.550;2023-04-25T03:38:38;3.80;;;1.37;;
71265;SDS011;59030;52.052;8.550;2023-04-25T03:41:07;4.67;;;1.40;;
71265;SDS011;59030;52.052;8.550;2023-04-25T03:43:35;2.10;;;1.23;;
71265;SDS011;59030;52.052;8.550;2023-04-25T03:46:02;3.03;;;1.70;;
71265;SDS011;59030;52.052;8.550;2023-04-25T03:48:29;1.13;;;1.07;;
71265;SDS011;59030;52.052;8.550;2023-04-25T03:50:57;1.53;;;1.43;;
71265;SDS011;59030;52.052;8.550;2023-04-25T03:53:25;2.80;;;1.53;;
71265;SDS011;59030;52.052;8.550;2023-04-25T03:55:52;4.17;;;1.40;;
71265;SDS011;59030;52.052;8.550;2023-04-25T03:58:20;2.00;;;1.80;;
71265;SDS011;59030;52.052;8.550;2023-04-25T04:00:49;1.40;;;1.30;;
71265;SDS011;59030;52.052;8.550;2023-04-25T04:03:16;2.47;;;1.80;;
71265;SDS011;59030;52.052;8.550;2023-04-25T04:05:44;2.97;;;1.63;;
71265;SDS011;59030;52.052;8.550;2023-04-25T04:08:12;1.70;;;1.23;;
71265;SDS011;59030;52.052;8.550;2023-04-25T04:10:39;1.33;;;1.20;;
71265;SDS011;59030;52.052;8.550;2023-04-25T04:13:07;1.90;;;1.17;;
71265;SDS011;59030;52.052;8.550;2023-04-25T04:15:34;4.50;;;1.60;;
71265;SDS011;59030;52.052;8.550;2023-04-25T04:18:02;1.90;;;1.30;;
71265;SDS011;59030;52.052;8.550;2023-04-25T04:20:29;1.40;;;1.13;;
71265;SDS011;59030;52.052;8.550;2023-04-25T04:22:56;1.23;;;1.20;;
71265;SDS011;59030;52.052;8.550;2023-04-25T04:25:24;1.17;;;1.13;;
71265;SDS011;59030;52.052;8.550;2023-04-25T04:27:52;1.23;;;1.13;;
71265;SDS011;59030;52.052;8.550;2023-04-25T04:30:21;4.00;;;1.30;;
71265;SDS011;59030;52.052;8.550;2023-04-25T04:32:54;1.53;;;1.43;;
71265;SDS011;59030;52.052;8.550;2023-04-25T04:35:21;1.37;;;1.27;;
71265;SDS011;59030;52.052;8.550;2023-04-25T04:37:49;1.90;;;1.27;;
71265;SDS011;59030;52.052;8.550;2023-04-25T04:40:19;1.43;;;1.23;;
71265;SDS011;59030;52.052;8.550;2023-04-25T04:42:47;3.50;;;1.33;;
71265;SDS011;59030;52.052;8.550;2023-04-25T04:45:15;1.27;;;1.17;;
71265;SDS011;59030;52.052;8.550;2023-04-25T04:47:43;1.87;;;1.30;;
71265;SDS011;59030;52.052;8.550;2023-04-25T04:50:11;2.27;;;1.40;;
71265;SDS011;59030;52.052;8.550;2023-04-25T04:52:39;1.60;;;1.43;;
71265;SDS011;59030;52.052;8.550;2023-04-25T04:55:07;1.50;;;1.40;;
71265;SDS011;59030;52.052;8.550;2023-04-25T04:57:34;1.83;;;1.43;;
71265;SDS011;59030;52.052;8.550;2023-04-25T05:00:05;2.23;;;1.13;;
71265;SDS011;59030;52.052;8.550;2023-04-25T05:02:36;1.50;;;1.13;;
71265;SDS011;59030;52.052;8.550;2023-04-25T05:05:03;1.70;;;1.43;;
71265;SDS011;59030;52.052;8.550;2023-04-25T05:07:31;3.37;;;1.60;;
71265;SDS011;59030;52.052;8.550;2023-04-25T05:09:58;1.60;;;1.50;;
71265;SDS011;59030;52.052;8.550;2023-04-25T05:12:26;3.17;;;1.20;;
71265;SDS011;59030;52.052;8.550;2023-04-25T05:14:54;1.60;;;1.50;;
71265;SDS011;59030;52.052;8.550;2023-04-25T05:17:22;3.17;;;1.97;;
71265;SDS011;59030;52.052;8.550;2023-04-25T05:19:50;3.13;;;1.80;;
71265;SDS011;59030;52.052;8.550;2023-04-25T05:22:17;2.37;;;1.63;;
71265;SDS011;59030;52.052;8.550;2023-04-25T05:24:44;2.87;;;1.70;;
71265;SDS011;59030;52.052;8.550;2023-04-25T05:27:12;2.03;;;1.53;;
71265;SDS011;59030;52.052;8.550;2023-04-25T05:29:39;5.90;;;2.07;;
71265;SDS011;59030;52.052;8.550;2023-04-25T05:32:06;1.57;;;1.47;;
71265;SDS011;59030;52.052;8.550;2023-04-25T05:34:36;1.60;;;1.40;;
71265;SDS011;59030;52.052;8.550;2023-04-25T05:37:03;2.50;;;1.53;;
71265;SDS011;59030;52.052;8.550;2023-04-25T05:39:33;2.30;;;1.63;;
71265;SDS011;59030;52.052;8.550;2023-04-25T05:42:00;1.40;;;1.30;;
71265;SDS011;59030;52.052;8.550;2023-04-25T05:44:30;1.83;;;1.53;;
71265;SDS011;59030;52.052;8.550;2023-04-25T05:46:59;1.80;;;1.53;;
71265;SDS011;59030;52.052;8.550;2023-04-25T05:49:26;2.43;;;1.43;;
71265;SDS011;59030;52.052;8.550;2023-04-25T05:51:55;4.60;;;1.53;;
71265;SDS011;59030;52.052;8.550;2023-04-25T05:54:24;2.47;;;1.47;;
71265;SDS011;59030;52.052;8.550;2023-04-25T05:56:55;2.90;;;1.67;;
71265;SDS011;59030;52.052;8.550;2023-04-25T05:59:24;2.00;;;1.50;;
71265;SDS011;59030;52.052;8.550;2023-04-25T06:01:55;1.63;;;1.50;;
71265;SDS011;59030;52.052;8.550;2023-04-25T06:04:23;3.20;;;1.40;;
71265;SDS011;59030;52.052;8.550;2023-04-25T06:06:50;1.47;;;1.37;;
71265;SDS011;59030;52.052;8.550;2023-04-25T06:09:18;2.73;;;1.50;;
71265;SDS011;59030;52.052;8.550;2023-04-25T06:11:45;3.30;;;1.27;;
71265;SDS011;59030;52.052;8.550;2023-04-25T06:14:12;1.20;;;1.10;;
71265;SDS011;59030;52.052;8.550;2023-04-25T06:16:42;1.93;;;1.40;;
71265;SDS011;59030;52.052;8.550;2023-04-25T06:19:14;2.23;;;1.60;;
71265;SDS011;59030;52.052;8.550;2023-04-25T06:21:46;1.20;;;1.20;;
71265;SDS011;59030;52.052;8.550;2023-04-25T06:24:15;3.03;;;1.27;;
71265;SDS011;59030;52.052;8.550;2023-04-25T06:26:43;2.97;;;1.17;;
71265;SDS011;59030;52.052;8.550;2023-04-25T06:29:15;2.63;;;1.10;;
71265;SDS011;59030;52.052;8.550;2023-04-25T06:31:43;1.87;;;1.33;;
71265;SDS011;59030;52.052;8.550;2023-04-25T06:34:12;1.43;;;1.17;;
71265;SDS011;59030;52.052;8.550;2023-04-25T06:36:43;1.33;;;1.03;;
71265;SDS011;59030;52.052;8.550;2023-04-25T06:39:11;1.20;;;1.20;;
71265;SDS011;59030;52.052;8.550;2023-04-25T06:41:40;2.10;;;1.00;;
71265;SDS011;59030;52.052;8.550;2023-04-25T06:44:12;0.77;;;0.77;;
71265;SDS011;59030;52.052;8.550;2023-04-25T06:46:40;1.30;;;1.20;;
71265;SDS011;59030;52.052;8.550;2023-04-25T06:49:09;2.27;;;1.27;;
71265;SDS011;59030;52.052;8.550;2023-04-25T06:51:36;2.03;;;1.03;;
71265;SDS011;59030;52.052;8.550;2023-04-25T06:54:03;1.37;;;1.33;;
71265;SDS011;59030;52.052;8.550;2023-04-25T06:56:31;2.10;;;0.97;;
71265;SDS011;59030;52.052;8.550;2023-04-25T06:58:58;2.30;;;1.37;;
71265;SDS011;59030;52.052;8.550;2023-04-25T07:01:26;1.30;;;1.20;;
71265;SDS011;59030;52.052;8.550;2023-04-25T07:03:54;1.40;;;1.30;;
71265;SDS011;59030;52.052;8.550;2023-04-25T07:06:21;1.70;;;1.30;;
71265;SDS011;59030;52.052;8.550;2023-04-25T07:08:48;4.43;;;1.53;;
71265;SDS011;59030;52.052;8.550;2023-04-25T07:11:16;2.53;;;1.50;;
71265;SDS011;59030;52.052;8.550;2023-04-25T07:13:43;1.63;;;1.20;;
71265;SDS011;59030;52.052;8.550;2023-04-25T07:16:10;1.37;;;1.07;;
71265;SDS011;59030;52.052;8.550;2023-04-25T07:18:39;1.20;;;1.10;;
71265;SDS011;59030;52.052;8.550;2023-04-25T07:21:07;2.23;;;1.03;;
71265;SDS011;59030;52.052;8.550;2023-04-25T07:23:34;2.40;;;1.30;;
71265;SDS011;59030;52.052;8.550;2023-04-25T07:26:03;1.87;;;1.53;;
71265;SDS011;59030;52.052;8.550;2023-04-25T07:28:31;1.77;;;1.10;;
71265;SDS011;59030;52.052;8.550;2023-04-25T07:30:58;2.07;;;1.20;;
71265;SDS011;59030;52.052;8.550;2023-04-25T07:33:29;1.40;;;1.27;;
71265;SDS011;59030;52.052;8.550;2023-04-25T07:35:58;4.37;;;1.67;;
71265;SDS011;59030;52.052;8.550;2023-04-25T07:38:28;1.77;;;1.40;;
71265;SDS011;59030;52.052;8.550;2023-04-25T07:40:57;1.60;;;1.40;;
71265;SDS011;59030;52.052;8.550;2023-04-25T07:43:28;2.17;;;1.20;;
71265;SDS011;59030;52.052;8.550;2023-04-25T07:45:57;2.63;;;1.77;;
71265;SDS011;59030;52.052;8.550;2023-04-25T07:48:26;1.87;;;1.13;;
71265;SDS011;59030;52.052;8.550;2023-04-25T07:50:56;1.07;;;1.00;;
71265;SDS011;59030;52.052;8.550;2023-04-25T07:53:23;1.40;;;1.30;;
71265;SDS011;59030;52.052;8.550;2023-04-25T07:55:50;1.33;;;0.80;;
71265;SDS011;59030;52.052;8.550;2023-04-25T07:58:18;1.87;;;1.20;;
71265;SDS011;59030;52.052;8.550;2023-04-25T08:00:47;1.10;;;1.03;;
71265;SDS011;59030;52.052;8.550;2023-04-25T08:03:16;1.93;;;1.10;;
71265;SDS011;59030;52.052;8.550;2023-04-25T08:05:45;1.00;;;0.93;;
71265;SDS011;59030;52.052;8.550;2023-04-25T08:08:12;2.20;;;1.13;;
71265;SDS011;59030;52.052;8.550;2023-04-25T08:10:41;1.00;;;0.90;;
71265;SDS011;59030;52.052;8.550;2023-04-25T08:13:08;2.77;;;1.07;;
71265;SDS011;59030;52.052;8.550;2023-04-25T08:15:36;1.37;;;1.00;;
71265;SDS011;59030;52.052;8.550;2023-04-25T08:18:03;1.23;;;1.10;;
71265;SDS011;59030;52.052;8.550;2023-04-25T08:20:31;1.23;;;1.00;;
71265;SDS011;59030;52.052;8.550;2023-04-25T08:22:58;1.27;;;0.87;;
71265;SDS011;59030;52.052;8.550;2023-04-25T08:25:26;1.90;;;1.10;;
71265;SDS011;59030;52.052;8.550;2023-04-25T08:27:58;0.90;;;0.90;;
71265;SDS011;59030;52.052;8.550;2023-04-25T08:30:27;1.97;;;0.90;;
71265;SDS011;59030;52.052;8.550;2023-04-25T08:32:56;1.20;;;1.10;;
71265;SDS011;59030;52.052;8.550;2023-04-25T08:35:24;1.70;;;0.90;;
71265;SDS011;59030;52.052;8.550;2023-04-25T08:37:53;1.43;;;1.03;;
71265;SDS011;59030;52.052;8.550;2023-04-25T08:40:23;0.90;;;0.90;;
71265;SDS011;59030;52.052;8.550;2023-04-25T08:42:59;1.43;;;0.73;;
71265;SDS011;59030;52.052;8.550;2023-04-25T08:45:29;0.80;;;0.80;;
71265;SDS011;59030;52.052;8.550;2023-04-25T08:47:58;1.13;;;1.03;;
71265;SDS011;59030;52.052;8.550;2023-04-25T08:50:27;0.90;;;0.83;;
71265;SDS011;59030;52.052;8.550;2023-04-25T08:52:54;3.40;;;1.27;;
71265;SDS011;59030;52.052;8.550;2023-04-25T08:55:24;4.00;;;1.23;;
71265;SDS011;59030;52.052;8.550;2023-04-25T08:57:52;1.43;;;0.80;;
71265;SDS011;59030;52.052;8.550;2023-04-25T09:00:21;1.27;;;1.13;;
71265;SDS011;59030;52.052;8.550;2023-04-25T09:02:49;1.90;;;0.97;;
71265;SDS011;59030;52.052;8.550;2023-04-25T09:05:19;1.40;;;1.00;;
71265;SDS011;59030;52.052;8.550;2023-04-25T09:07:49;0.70;;;0.70;;
71265;SDS011;59030;52.052;8.550;2023-04-25T09:10:17;0.93;;;0.90;;
71265;SDS011;59030;52.052;8.550;2023-04-25T09:12:44;0.90;;;0.90;;
71265;SDS011;59030;52.052;8.550;2023-04-25T09:15:12;1.73;;;0.80;;
71265;SDS011;59030;52.052;8.550;2023-04-25T09:17:41;1.63;;;1.10;;
71265;SDS011;59030;52.052;8.550;2023-04-25T09:20:11;1.43;;;1.03;;
71265;SDS011;59030;52.052;8.550;2023-04-25T09:22:39;1.00;;;1.00;;
71265;SDS011;59030;52.052;8.550;2023-04-25T09:25:10;0.90;;;0.90;;
71265;SDS011;59030;52.052;8.550;2023-04-25T09:27:40;1.93;;;1.43;;
71265;SDS011;59030;52.052;8.550;2023-04-25T09:30:10;1.47;;;1.37;;
71265;SDS011;59030;52.052;8.550;2023-04-25T09:32:43;1.13;;;1.03;;
71265;SDS011;59030;52.052;8.550;2023-04-25T09:35:11;0.80;;;0.80;;
71265;SDS011;59030;52.052;8.550;2023-04-25T09:37:41;0.93;;;0.80;;
71265;SDS011;59030;52.052;8.550;2023-04-25T09:40:10;2.43;;;1.20;;
71265;SDS011;59030;52.052;8.550;2023-04-25T09:42:40;0.90;;;0.90;;
71265;SDS011;59030;52.052;8.550;2023-04-25T09:45:09;0.70;;;0.70;;
71265;SDS011;59030;52.052;8.550;2023-04-25T09:47:37;0.93;;;0.93;;
71265;SDS011;59030;52.052;8.550;2023-04-25T09:50:13;0.90;;;0.90;;
71265;SDS011;59030;52.052;8.550;2023-04-25T09:52:38;0.73;;;0.60;;
71265;SDS011;59030;52.052;8.550;2023-04-25T09:55:06;1.23;;;0.70;;
71265;SDS011;59030;52.052;8.550;2023-04-25T09:57:34;0.43;;;0.43;;
71265;SDS011;59030;52.052;8.550;2023-04-25T10:00:05;0.93;;;0.60;;
71265;SDS011;59030;52.052;8.550;2023-04-25T10:02:36;0.70;;;0.70;;
71265;SDS011;59030;52.052;8.550;2023-04-25T10:05:06;0.70;;;0.70;;
71265;SDS011;59030;52.052;8.550;2023-04-25T10:07:34;1.23;;;0.70;;
71265;SDS011;59030;52.052;8.550;2023-04-25T10:10:05;3.83;;;0.90;;
71265;SDS011;59030;52.052;8.550;2023-04-25T10:12:33;1.20;;;0.83;;
71265;SDS011;59030;52.052;8.550;2023-04-25T10:15:01;1.43;;;0.77;;
71265;SDS011;59030;52.052;8.550;2023-04-25T10:17:31;1.10;;;0.70;;
71265;SDS011;59030;52.052;8.550;2023-04-25T10:19:59;2.03;;;0.80;;
71265;SDS011;59030;52.052;8.550;2023-04-25T10:22:31;0.70;;;0.70;;
71265;SDS011;59030;52.052;8.550;2023-04-25T10:24:59;0.83;;;0.83;;
71265;SDS011;59030;52.052;8.550;2023-04-25T10:27:30;1.63;;;0.90;;
71265;SDS011;59030;52.052;8.550;2023-04-25T10:30:03;0.77;;;0.77;;
71265;SDS011;59030;52.052;8.550;2023-04-25T10:32:42;0.93;;;0.80;;
71265;SDS011;59030;52.052;8.550;2023-04-25T10:35:16;0.80;;;0.80;;
71265;SDS011;59030;52.052;8.550;2023-04-25T10:38:04;0.80;;;0.80;;
71265;SDS011;59030;52.052;8.550;2023-04-25T10:40:32;0.50;;;0.50;;
71265;SDS011;59030;52.052;8.550;2023-04-25T10:46:00;2.00;;;1.10;;
71265;SDS011;59030;52.052;8.550;2023-04-25T10:48:29;0.97;;;0.80;;
71265;SDS011;59030;52.052;8.550;2023-04-25T10:51:09;0.90;;;0.90;;
71265;SDS011;59030;52.052;8.550;2023-04-25T10:53:37;1.33;;;0.87;;
71265;SDS011;59030;52.052;8.550;2023-04-25T10:56:11;0.90;;;0.90;;
71265;SDS011;59030;52.052;8.550;2023-04-25T10:58:43;1.27;;;1.10;;
71265;SDS011;59030;52.052;8.550;2023-04-25T11:04:20;0.97;;;0.70;;
71265;SDS011;59030;52.052;8.550;2023-04-25T11:06:51;0.80;;;0.80;;
71265;SDS011;59030;52.052;8.550;2023-04-25T11:09:20;0.97;;;0.80;;
71265;SDS011;59030;52.052;8.550;2023-04-25T11:11:53;1.20;;;1.10;;
71265;SDS011;59030;52.052;8.550;2023-04-25T11:14:21;0.90;;;0.90;;
71265;SDS011;59030;52.052;8.550;2023-04-25T11:16:52;1.27;;;1.03;;
71265;SDS011;59030;52.052;8.550;2023-04-25T11:19:21;1.40;;;1.00;;
71265;SDS011;59030;52.052;8.550;2023-04-25T11:21:49;1.53;;;1.17;;
71265;SDS011;59030;52.052;8.550;2023-04-25T11:24:17;0.87;;;0.87;;
71265;SDS011;59030;52.052;8.550;2023-04-25T11:26:47;1.07;;;0.97;;
71265;SDS011;59030;52.052;8.550;2023-04-25T11:29:14;1.10;;;1.00;;
71265;SDS011;59030;52.052;8.550;2023-04-25T11:31:43;3.57;;;0.80;;
71265;SDS011;59030;52.052;8.550;2023-04-25T11:34:11;0.80;;;0.80;;
71265;SDS011;59030;52.052;8.550;2023-04-25T11:36:39;0.83;;;0.83;;
71265;SDS011;59030;52.052;8.550;2023-04-25T11:39:06;1.40;;;1.00;;
71265;SDS011;59030;52.052;8.550;2023-04-25T11:41:34;1.70;;;1.00;;
71265;SDS011;59030;52.052;8.550;2023-04-25T11:44:01;0.90;;;0.90;;
71265;SDS011;59030;52.052;8.550;2023-04-25T11:46:29;0.60;;;0.60;;
71265;SDS011;59030;52.052;8.550;2023-04-25T11:48:56;1.97;;;1.10;;
71265;SDS011;59030;52.052;8.550;2023-04-25T11:51:24;1.23;;;0.90;;
71265;SDS011;59030;52.052;8.550;2023-04-25T11:53:52;0.90;;;0.90;;
71265;SDS011;59030;52.052;8.550;2023-04-25T11:56:19;1.83;;;1.20;;
71265;SDS011;59030;52.052;8.550;2023-04-25T11:58:57;0.90;;;0.90;;
71265;SDS011;59030;52.052;8.550;2023-04-25T12:01:27;1.17;;;1.00;;
71265;SDS011;59030;52.052;8.550;2023-04-25T12:03:54;0.90;;;0.90;;
71265;SDS011;59030;52.052;8.550;2023-04-25T12:06:23;2.27;;;0.90;;
71265;SDS011;59030;52.052;8.550;2023-04-25T12:09:10;0.80;;;0.80;;
71265;SDS011;59030;52.052;8.550;2023-04-25T12:11:42;0.97;;;0.87;;
71265;SDS011;59030;52.052;8.550;2023-04-25T12:14:09;1.70;;;1.10;;
71265;SDS011;59030;52.052;8.550;2023-04-25T12:16:40;1.13;;;0.87;;
71265;SDS011;59030;52.052;8.550;2023-04-25T12:19:08;0.63;;;0.63;;
71265;SDS011;59030;52.052;8.550;2023-04-25T12:21:36;0.80;;;0.80;;
71265;SDS011;59030;52.052;8.550;2023-04-25T12:24:10;1.20;;;0.80;;
71265;SDS011;59030;52.052;8.550;2023-04-25T12:26:50;1.80;;;1.00;;
71265;SDS011;59030;52.052;8.550;2023-04-25T12:29:19;0.77;;;0.77;;
71265;SDS011;59030;52.052;8.550;2023-04-25T12:31:47;0.77;;;0.77;;
71265;SDS011;59030;52.052;8.550;2023-04-25T12:34:14;3.50;;;0.83;;
71265;SDS011;59030;52.052;8.550;2023-04-25T12:36:42;0.90;;;0.73;;
71265;SDS011;59030;52.052;8.550;2023-04-25T12:39:10;0.60;;;0.60;;
71265;SDS011;59030;52.052;8.550;2023-04-25T12:41:39;0.77;;;0.77;;
71265;SDS011;59030;52.052;8.550;2023-04-25T12:44:07;1.10;;;0.70;;
71265;SDS011;59030;52.052;8.550;2023-04-25T12:46:34;1.10;;;0.80;;
71265;SDS011;59030;52.052;8.550;2023-04-25T12:49:02;1.63;;;0.97;;
71265;SDS011;59030;52.052;8.550;2023-04-25T12:51:30;0.93;;;0.83;;
71265;SDS011;59030;52.052;8.550;2023-04-25T12:53:58;1.20;;;0.83;;
71265;SDS011;59030;52.052;8.550;2023-04-25T12:56:26;0.77;;;0.77;;
71265;SDS011;59030;52.052;8.550;2023-04-25T12:58:53;0.90;;;0.90;;
71265;SDS011;59030;52.052;8.550;2023-04-25T13:01:21;0.90;;;0.90;;
71265;SDS011;59030;52.052;8.550;2023-04-25T13:03:48;0.60;;;0.60;;
71265;SDS011;59030;52.052;8.550;2023-04-25T13:06:16;0.73;;;0.73;;
71265;SDS011;59030;52.052;8.550;2023-04-25T13:08:44;0.77;;;0.70;;
71265;SDS011;59030;52.052;8.550;2023-04-25T13:11:12;0.60;;;0.60;;
71265;SDS011;59030;52.052;8.550;2023-04-25T13:13:40;0.57;;;0.57;;
71265;SDS011;59030;52.052;8.550;2023-04-25T13:16:08;2.40;;;0.90;;
71265;SDS011;59030;52.052;8.550;2023-04-25T13:18:37;2.67;;;0.80;;
71265;SDS011;59030;52.052;8.550;2023-04-25T13:21:05;0.70;;;0.70;;
71265;SDS011;59030;52.052;8.550;2023-04-25T13:23:33;0.77;;;0.77;;
71265;SDS011;59030;52.052;8.550;2023-04-25T13:26:01;0.80;;;0.80;;
71265;SDS011;59030;52.052;8.550;2023-04-25T13:28:28;0.60;;;0.60;;
71265;SDS011;59030;52.052;8.550;2023-04-25T13:30:56;0.80;;;0.80;;
71265;SDS011;59030;52.052;8.550;2023-04-25T13:33:24;0.73;;;0.73;;
71265;SDS011;59030;52.052;8.550;2023-04-25T13:35:52;0.70;;;0.70;;
71265;SDS011;59030;52.052;8.550;2023-04-25T13:38:24;0.83;;;0.83;;
71265;SDS011;59030;52.052;8.550;2023-04-25T13:40:52;1.50;;;0.90;;
71265;SDS011;59030;52.052;8.550;2023-04-25T13:43:19;0.80;;;0.80;;
71265;SDS011;59030;52.052;8.550;2023-04-25T13:45:47;0.90;;;0.90;;
71265;SDS011;59030;52.052;8.550;2023-04-25T13:48:15;0.90;;;0.90;;
71265;SDS011;59030;52.052;8.550;2023-04-25T13:50:43;1.80;;;0.80;;
71265;SDS011;59030;52.052;8.550;2023-04-25T13:53:11;0.60;;;0.60;;
71265;SDS011;59030;52.052;8.550;2023-04-25T13:55:38;0.80;;;0.80;;
71265;SDS011;59030;52.052;8.550;2023-04-25T13:58:06;1.00;;;0.90;;
71265;SDS011;59030;52.052;8.550;2023-04-25T14:00:36;0.87;;;0.80;;
71265;SDS011;59030;52.052;8.550;2023-04-25T14:03:05;0.60;;;0.60;;
71265;SDS011;59030;52.052;8.550;2023-04-25T14:05:34;0.80;;;0.80;;
71265;SDS011;59030;52.052;8.550;2023-04-25T14:08:06;0.80;;;0.80;;
71265;SDS011;59030;52.052;8.550;2023-04-25T14:10:33;0.80;;;0.80;;
71265;SDS011;59030;52.052;8.550;2023-04-25T14:13:01;1.03;;;0.93;;
71265;SDS011;59030;52.052;8.550;2023-04-25T14:15:30;1.00;;;1.00;;
71265;SDS011;59030;52.052;8.550;2023-04-25T14:17:57;0.90;;;0.90;;
71265;SDS011;59030;52.052;8.550;2023-04-25T14:20:28;0.90;;;0.90;;
71265;SDS011;59030;52.052;8.550;2023-04-25T14:22:56;0.80;;;0.80;;
71265;SDS011;59030;52.052;8.550;2023-04-25T14:25:24;1.00;;;0.90;;
71265;SDS011;59030;52.052;8.550;2023-04-25T14:27:51;0.67;;;0.67;;
71265;SDS011;59030;52.052;8.550;2023-04-25T14:30:19;1.87;;;0.70;;
71265;SDS011;59030;52.052;8.550;2023-04-25T14:32:48;0.60;;;0.60;;
71265;SDS011;59030;52.052;8.550;2023-04-25T14:35:15;0.70;;;0.70;;
71265;SDS011;59030;52.052;8.550;2023-04-25T14:37:43;0.70;;;0.70;;
71265;SDS011;59030;52.052;8.550;2023-04-25T14:40:13;0.70;;;0.60;;
71265;SDS011;59030;52.052;8.550;2023-04-25T14:42:41;0.90;;;0.90;;
71265;SDS011;59030;52.052;8.550;2023-04-25T14:45:09;0.70;;;0.70;;
71265;SDS011;59030;52.052;8.550;2023-04-25T14:47:37;0.60;;;0.60;;
71265;SDS011;59030;52.052;8.550;2023-04-25T14:50:06;0.77;;;0.77;;
71265;SDS011;59030;52.052;8.550;2023-04-25T14:52:37;0.40;;;0.40;;
71265;SDS011;59030;52.052;8.550;2023-04-25T14:55:08;1.37;;;0.80;;
71265;SDS011;59030;52.052;8.550;2023-04-25T14:57:39;0.40;;;0.40;;
71265;SDS011;59030;52.052;8.550;2023-04-25T15:00:08;1.37;;;0.80;;
71265;SDS011;59030;52.052;8.550;2023-04-25T15:02:38;0.60;;;0.60;;
71265;SDS011;59030;52.052;8.550;2023-04-25T15:05:06;0.50;;;0.50;;
71265;SDS011;59030;52.052;8.550;2023-04-25T15:07:35;0.60;;;0.60;;
71265;SDS011;59030;52.052;8.550;2023-04-25T15:10:06;1.17;;;0.67;;
71265;SDS011;59030;52.052;8.550;2023-04-25T15:12:37;0.60;;;0.60;;
71265;SDS011;59030;52.052;8.550;2023-04-25T15:15:05;0.60;;;0.60;;
71265;SDS011;59030;52.052;8.550;2023-04-25T15:17:35;1.37;;;0.60;;
71265;SDS011;59030;52.052;8.550;2023-04-25T15:20:07;0.70;;;0.70;;
71265;SDS011;59030;52.052;8.550;2023-04-25T15:22:35;0.40;;;0.40;;
71265;SDS011;59030;52.052;8.550;2023-04-25T15:25:05;0.60;;;0.60;;
71265;SDS011;59030;52.052;8.550;2023-04-25T15:27:35;0.60;;;0.60;;
71265;SDS011;59030;52.052;8.550;2023-04-25T15:30:07;0.43;;;0.40;;
71265;SDS011;59030;52.052;8.550;2023-04-25T15:32:37;0.90;;;0.90;;
71265;SDS011;59030;52.052;8.550;2023-04-25T15:35:05;0.47;;;0.47;;
71265;SDS011;59030;52.052;8.550;2023-04-25T15:37:33;0.57;;;0.57;;
71265;SDS011;59030;52.052;8.550;2023-04-25T15:40:02;0.60;;;0.60;;
71265;SDS011;59030;52.052;8.550;2023-04-25T15:42:35;1.40;;;0.60;;
71265;SDS011;59030;52.052;8.550;2023-04-25T15:45:03;0.70;;;0.70;;
71265;SDS011;59030;52.052;8.550;2023-04-25T15:50:24;0.60;;;0.60;;
71265;SDS011;59030;52.052;8.550;2023-04-25T15:52:53;0.50;;;0.50;;
71265;SDS011;59030;52.052;8.550;2023-04-25T15:55:28;0.63;;;0.60;;
71265;SDS011;59030;52.052;8.550;2023-04-25T15:57:59;0.93;;;0.70;;
71265;SDS011;59030;52.052;8.550;2023-04-25T16:06:32;0.60;;;0.60;;
71265;SDS011;59030;52.052;8.550;2023-04-25T16:08:59;1.73;;;0.80;;
71265;SDS011;59030;52.052;8.550;2023-04-25T16:11:27;0.73;;;0.73;;
71265;SDS011;59030;52.052;8.550;2023-04-25T16:13:55;0.70;;;0.70;;
71265;SDS011;59030;52.052;8.550;2023-04-25T16:16:22;0.97;;;0.77;;
71265;SDS011;59030;52.052;8.550;2023-04-25T16:18:49;0.60;;;0.60;;
71265;SDS011;59030;52.052;8.550;2023-04-25T16:21:17;0.70;;;0.70;;
71265;SDS011;59030;52.052;8.550;2023-04-25T16:23:44;0.70;;;0.70;;
71265;SDS011;59030;52.052;8.550;2023-04-25T16:26:12;0.90;;;0.90;;
71265;SDS011;59030;52.052;8.550;2023-04-25T16:28:39;0.43;;;0.43;;
71265;SDS011;59030;52.052;8.550;2023-04-25T16:31:07;0.50;;;0.50;;
71265;SDS011;59030;52.052;8.550;2023-04-25T16:33:34;0.73;;;0.60;;
71265;SDS011;59030;52.052;8.550;2023-04-25T16:36:02;0.77;;;0.77;;
71265;SDS011;59030;52.052;8.550;2023-04-25T16:38:29;0.60;;;0.60;;
71265;SDS011;59030;52.052;8.550;2023-04-25T16:40:56;0.80;;;0.80;;
71265;SDS011;59030;52.052;8.550;2023-04-25T16:43:24;1.57;;;1.10;;
71265;SDS011;59030;52.052;8.550;2023-04-25T16:45:53;0.90;;;0.90;;
71265;SDS011;59030;52.052;8.550;2023-04-25T16:48:23;1.03;;;1.03;;
71265;SDS011;59030;52.052;8.550;2023-04-25T16:50:51;0.73;;;0.73;;
71265;SDS011;59030;52.052;8.550;2023-04-25T16:53:18;1.03;;;0.97;;
71265;SDS011;59030;52.052;8.550;2023-04-25T16:55:47;1.03;;;1.03;;
71265;SDS011;59030;52.052;8.550;2023-04-25T16:58:17;1.27;;;1.17;;
71265;SDS011;59030;52.052;8.550;2023-04-25T17:00:45;2.23;;;1.07;;
71265;SDS011;59030;52.052;8.550;2023-04-25T17:03:12;1.17;;;1.07;;
71265;SDS011;59030;52.052;8.550;2023-04-25T17:05:40;1.83;;;1.03;;
71265;SDS011;59030;52.052;8.550;2023-04-25T17:08:09;1.00;;;1.00;;
71265;SDS011;59030;52.052;8.550;2023-04-25T17:10:37;0.67;;;0.67;;
71265;SDS011;59030;52.052;8.550;2023-04-25T17:13:04;1.10;;;1.00;;
71265;SDS011;59030;52.052;8.550;2023-04-25T17:15:32;1.77;;;1.30;;
71265;SDS011;59030;52.052;8.550;2023-04-25T17:17:59;1.00;;;1.00;;
71265;SDS011;59030;52.052;8.550;2023-04-25T17:20:27;1.10;;;1.00;;
71265;SDS011;59030;52.052;8.550;2023-04-25T17:22:54;1.40;;;0.90;;
71265;SDS011;59030;52.052;8.550;2023-04-25T17:25:23;1.07;;;0.97;;
71265;SDS011;59030;52.052;8.550;2023-04-25T17:27:51;1.53;;;0.80;;
71265;SDS011;59030;52.052;8.550;2023-04-25T17:30:19;0.77;;;0.77;;
71265;SDS011;59030;52.052;8.550;2023-04-25T17:32:46;1.10;;;1.03;;
71265;SDS011;59030;52.052;8.550;2023-04-25T17:35:13;1.73;;;0.93;;
71265;SDS011;59030;52.052;8.550;2023-04-25T17:37:42;1.20;;;1.10;;
71265;SDS011;59030;52.052;8.550;2023-04-25T17:40:11;1.90;;;0.90;;
71265;SDS011;59030;52.052;8.550;2023-04-25T17:42:39;0.97;;;0.80;;
71265;SDS011;59030;52.052;8.550;2023-04-25T17:45:07;1.10;;;1.03;;
71265;SDS011;59030;52.052;8.550;2023-04-25T17:47:36;1.07;;;1.07;;
71265;SDS011;59030;52.052;8.550;2023-04-25T17:50:05;1.03;;;0.97;;
71265;SDS011;59030;52.052;8.550;2023-04-25T17:52:32;0.63;;;0.63;;